sensor_id;sensor_type;location;lat;lon;timestamp;P1;durP1;ratioP1;P2;durP2;ratioP2
76712;SDS011;65640;43.154;25.658;2023-03-04T00:01:15;53.25;;;28.23;;
76712;SDS011;65640;43.154;25.658;2023-03-04T00:03:41;51.20;;;26.50;;
76712;SDS011;65640;43.154;25.658;2023-03-04T00:06:06;58.22;;;32.50;;
76712;SDS011;65640;43.154;25.658;2023-03-04T00:08:32;53.22;;;30.23;;
76712;SDS011;65640;43.154;25.658;2023-03-04T00:10:58;59.42;;;31.10;;
76712;SDS011;65640;43.154;25.658;2023-03-04T00:13:24;51.78;;;27.45;;
76712;SDS011;65640;43.154;25.658;2023-03-04T00:15:49;45.30;;;26.10;;
76712;SDS011;65640;43.154;25.658;2023-03-04T00:18:15;51.33;;;26.52;;
76712;SDS011;65640;43.154;25.658;2023-03-04T00:20:41;44.53;;;24.20;;
76712;SDS011;65640;43.154;25.658;2023-03-04T00:23:06;50.17;;;25.15;;
76712;SDS011;65640;43.154;25.658;2023-03-04T00:25:32;46.20;;;23.60;;
76712;SDS011;65640;43.154;25.658;2023-03-04T00:27:57;42.78;;;21.13;;
76712;SDS011;65640;43.154;25.658;2023-03-04T00:30:23;44.53;;;22.25;;
76712;SDS011;65640;43.154;25.658;2023-03-04T00:32:49;42.47;;;22.13;;
76712;SDS011;65640;43.154;25.658;2023-03-04T00:35:14;51.05;;;23.00;;
76712;SDS011;65640;43.154;25.658;2023-03-04T00:37:40;49.45;;;24.08;;
76712;SDS011;65640;43.154;25.658;2023-03-04T00:40:06;48.33;;;26.33;;
76712;SDS011;65640;43.154;25.658;2023-03-04T00:42:31;45.83;;;25.27;;
76712;SDS011;65640;43.154;25.658;2023-03-04T00:44:57;47.58;;;23.85;;
76712;SDS011;65640;43.154;25.658;2023-03-04T00:47:22;48.42;;;24.70;;
76712;SDS011;65640;43.154;25.658;2023-03-04T00:49:48;51.97;;;25.38;;
76712;SDS011;65640;43.154;25.658;2023-03-04T00:52:13;50.97;;;24.48;;
76712;SDS011;65640;43.154;25.658;2023-03-04T00:54:39;48.67;;;26.85;;
76712;SDS011;65640;43.154;25.658;2023-03-04T00:57:04;48.78;;;26.13;;
76712;SDS011;65640;43.154;25.658;2023-03-04T00:59:29;55.53;;;26.90;;
76712;SDS011;65640;43.154;25.658;2023-03-04T01:01:55;51.10;;;26.23;;
76712;SDS011;65640;43.154;25.658;2023-03-04T01:04:20;89.93;;;36.50;;
76712;SDS011;65640;43.154;25.658;2023-03-04T01:06:46;73.78;;;31.80;;
76712;SDS011;65640;43.154;25.658;2023-03-04T01:09:11;55.50;;;26.65;;
76712;SDS011;65640;43.154;25.658;2023-03-04T01:11:36;47.67;;;23.73;;
76712;SDS011;65640;43.154;25.658;2023-03-04T01:14:02;48.92;;;25.52;;
76712;SDS011;65640;43.154;25.658;2023-03-04T01:16:27;45.97;;;23.38;;
76712;SDS011;65640;43.154;25.658;2023-03-04T01:18:53;47.53;;;24.95;;
76712;SDS011;65640;43.154;25.658;2023-03-04T01:21:18;46.45;;;23.60;;
76712;SDS011;65640;43.154;25.658;2023-03-04T01:23:44;41.67;;;21.98;;
76712;SDS011;65640;43.154;25.658;2023-03-04T01:26:09;51.78;;;25.55;;
76712;SDS011;65640;43.154;25.658;2023-03-04T01:28:35;49.92;;;24.83;;
76712;SDS011;65640;43.154;25.658;2023-03-04T01:31:01;48.33;;;24.83;;
76712;SDS011;65640;43.154;25.658;2023-03-04T01:33:27;47.63;;;24.27;;
76712;SDS011;65640;43.154;25.658;2023-03-04T01:35:53;44.40;;;23.77;;
76712;SDS011;65640;43.154;25.658;2023-03-04T01:38:18;43.60;;;22.85;;
76712;SDS011;65640;43.154;25.658;2023-03-04T01:40:43;50.40;;;26.35;;
76712;SDS011;65640;43.154;25.658;2023-03-04T01:43:17;46.30;;;22.58;;
76712;SDS011;65640;43.154;25.658;2023-03-04T01:45:47;43.33;;;22.05;;
76712;SDS011;65640;43.154;25.658;2023-03-04T01:48:14;48.10;;;24.05;;
76712;SDS011;65640;43.154;25.658;2023-03-04T01:50:42;38.47;;;20.77;;
76712;SDS011;65640;43.154;25.658;2023-03-04T01:53:08;50.92;;;24.73;;
76712;SDS011;65640;43.154;25.658;2023-03-04T01:55:59;47.33;;;23.25;;
76712;SDS011;65640;43.154;25.658;2023-03-04T01:58:30;52.95;;;27.35;;
76712;SDS011;65640;43.154;25.658;2023-03-04T02:00:57;50.50;;;26.77;;
76712;SDS011;65640;43.154;25.658;2023-03-04T02:03:23;64.18;;;30.38;;
76712;SDS011;65640;43.154;25.658;2023-03-04T02:05:49;81.85;;;33.00;;
76712;SDS011;65640;43.154;25.658;2023-03-04T02:10:45;70.03;;;29.88;;
76712;SDS011;65640;43.154;25.658;2023-03-04T02:13:11;69.03;;;29.70;;
76712;SDS011;65640;43.154;25.658;2023-03-04T02:15:38;65.00;;;28.08;;
76712;SDS011;65640;43.154;25.658;2023-03-04T02:18:11;66.72;;;27.42;;
76712;SDS011;65640;43.154;25.658;2023-03-04T02:28:44;58.58;;;27.10;;
76712;SDS011;65640;43.154;25.658;2023-03-04T02:31:25;67.20;;;31.80;;
76712;SDS011;65640;43.154;25.658;2023-03-04T02:34:04;61.30;;;25.63;;
76712;SDS011;65640;43.154;25.658;2023-03-04T02:36:32;58.40;;;25.33;;
76712;SDS011;65640;43.154;25.658;2023-03-04T02:39:03;57.50;;;25.52;;
76712;SDS011;65640;43.154;25.658;2023-03-04T02:41:32;86.97;;;33.00;;
76712;SDS011;65640;43.154;25.658;2023-03-04T02:43:58;77.32;;;32.30;;
76712;SDS011;65640;43.154;25.658;2023-03-04T02:46:23;71.05;;;31.02;;
76712;SDS011;65640;43.154;25.658;2023-03-04T02:48:49;58.38;;;28.17;;
76712;SDS011;65640;43.154;25.658;2023-03-04T02:51:15;67.07;;;31.05;;
76712;SDS011;65640;43.154;25.658;2023-03-04T02:53:40;69.82;;;29.70;;
76712;SDS011;65640;43.154;25.658;2023-03-04T02:56:06;80.10;;;30.92;;
76712;SDS011;65640;43.154;25.658;2023-03-04T02:58:32;88.78;;;31.17;;
76712;SDS011;65640;43.154;25.658;2023-03-04T03:00:57;79.75;;;30.50;;
76712;SDS011;65640;43.154;25.658;2023-03-04T03:03:23;71.80;;;31.23;;
76712;SDS011;65640;43.154;25.658;2023-03-04T03:05:48;73.28;;;31.33;;
76712;SDS011;65640;43.154;25.658;2023-03-04T03:08:14;79.60;;;33.13;;
76712;SDS011;65640;43.154;25.658;2023-03-04T03:10:39;87.50;;;33.88;;
76712;SDS011;65640;43.154;25.658;2023-03-04T03:13:05;81.55;;;32.88;;
76712;SDS011;65640;43.154;25.658;2023-03-04T03:15:30;72.60;;;30.17;;
76712;SDS011;65640;43.154;25.658;2023-03-04T03:17:56;70.78;;;30.60;;
76712;SDS011;65640;43.154;25.658;2023-03-04T03:20:21;69.00;;;29.25;;
76712;SDS011;65640;43.154;25.658;2023-03-04T03:22:47;71.85;;;30.95;;
76712;SDS011;65640;43.154;25.658;2023-03-04T03:25:13;64.35;;;28.30;;
76712;SDS011;65640;43.154;25.658;2023-03-04T03:27:39;60.10;;;29.58;;
76712;SDS011;65640;43.154;25.658;2023-03-04T03:30:05;72.88;;;31.20;;
76712;SDS011;65640;43.154;25.658;2023-03-04T03:32:32;68.95;;;31.33;;
76712;SDS011;65640;43.154;25.658;2023-03-04T03:34:58;74.32;;;32.33;;
76712;SDS011;65640;43.154;25.658;2023-03-04T03:37:23;71.32;;;31.48;;
76712;SDS011;65640;43.154;25.658;2023-03-04T03:39:48;76.65;;;32.97;;
76712;SDS011;65640;43.154;25.658;2023-03-04T03:42:14;79.97;;;32.03;;
76712;SDS011;65640;43.154;25.658;2023-03-04T03:44:39;75.13;;;31.55;;
76712;SDS011;65640;43.154;25.658;2023-03-04T03:47:05;70.78;;;32.92;;
76712;SDS011;65640;43.154;25.658;2023-03-04T03:49:31;66.53;;;31.23;;
76712;SDS011;65640;43.154;25.658;2023-03-04T03:51:56;77.53;;;32.97;;
76712;SDS011;65640;43.154;25.658;2023-03-04T03:54:22;74.03;;;32.45;;
76712;SDS011;65640;43.154;25.658;2023-03-04T03:56:47;82.45;;;34.85;;
76712;SDS011;65640;43.154;25.658;2023-03-04T03:59:12;74.03;;;33.72;;
76712;SDS011;65640;43.154;25.658;2023-03-04T04:01:38;71.43;;;32.65;;
76712;SDS011;65640;43.154;25.658;2023-03-04T04:04:03;54.35;;;27.42;;
76712;SDS011;65640;43.154;25.658;2023-03-04T04:06:29;55.28;;;29.40;;
76712;SDS011;65640;43.154;25.658;2023-03-04T04:08:55;59.47;;;28.08;;
76712;SDS011;65640;43.154;25.658;2023-03-04T04:11:20;56.35;;;28.08;;
76712;SDS011;65640;43.154;25.658;2023-03-04T04:13:46;59.42;;;27.73;;
76712;SDS011;65640;43.154;25.658;2023-03-04T04:16:11;61.22;;;27.63;;
76712;SDS011;65640;43.154;25.658;2023-03-04T04:18:37;57.53;;;27.38;;
76712;SDS011;65640;43.154;25.658;2023-03-04T04:21:02;55.70;;;27.90;;
76712;SDS011;65640;43.154;25.658;2023-03-04T04:23:28;58.40;;;27.40;;
76712;SDS011;65640;43.154;25.658;2023-03-04T04:25:54;55.28;;;26.02;;
76712;SDS011;65640;43.154;25.658;2023-03-04T04:28:20;51.42;;;25.40;;
76712;SDS011;65640;43.154;25.658;2023-03-04T04:30:46;52.75;;;26.13;;
76712;SDS011;65640;43.154;25.658;2023-03-04T04:33:11;57.28;;;25.65;;
76712;SDS011;65640;43.154;25.658;2023-03-04T04:35:37;52.38;;;26.48;;
76712;SDS011;65640;43.154;25.658;2023-03-04T04:38:03;49.85;;;25.00;;
76712;SDS011;65640;43.154;25.658;2023-03-04T04:40:29;52.80;;;25.45;;
76712;SDS011;65640;43.154;25.658;2023-03-04T04:42:54;50.35;;;26.75;;
76712;SDS011;65640;43.154;25.658;2023-03-04T04:45:20;44.33;;;25.23;;
76712;SDS011;65640;43.154;25.658;2023-03-04T04:47:48;48.65;;;26.10;;
76712;SDS011;65640;43.154;25.658;2023-03-04T04:50:14;54.53;;;27.35;;
76712;SDS011;65640;43.154;25.658;2023-03-04T04:52:40;49.92;;;26.45;;
76712;SDS011;65640;43.154;25.658;2023-03-04T04:55:05;52.50;;;27.55;;
76712;SDS011;65640;43.154;25.658;2023-03-04T04:57:32;52.88;;;27.25;;
76712;SDS011;65640;43.154;25.658;2023-03-04T04:59:57;49.53;;;27.15;;
76712;SDS011;65640;43.154;25.658;2023-03-04T05:02:23;43.05;;;23.42;;
76712;SDS011;65640;43.154;25.658;2023-03-04T05:04:48;53.15;;;26.70;;
76712;SDS011;65640;43.154;25.658;2023-03-04T05:07:13;48.10;;;24.55;;
76712;SDS011;65640;43.154;25.658;2023-03-04T05:09:39;44.25;;;25.25;;
76712;SDS011;65640;43.154;25.658;2023-03-04T05:12:04;43.33;;;24.45;;
76712;SDS011;65640;43.154;25.658;2023-03-04T05:14:30;47.75;;;25.10;;
76712;SDS011;65640;43.154;25.658;2023-03-04T05:16:55;47.47;;;24.75;;
76712;SDS011;65640;43.154;25.658;2023-03-04T05:19:21;47.95;;;24.02;;
76712;SDS011;65640;43.154;25.658;2023-03-04T05:21:46;46.80;;;24.45;;
76712;SDS011;65640;43.154;25.658;2023-03-04T05:24:12;46.45;;;25.95;;
76712;SDS011;65640;43.154;25.658;2023-03-04T05:26:37;39.58;;;22.58;;
76712;SDS011;65640;43.154;25.658;2023-03-04T05:29:02;49.53;;;24.27;;
76712;SDS011;65640;43.154;25.658;2023-03-04T05:31:28;48.67;;;25.20;;
76712;SDS011;65640;43.154;25.658;2023-03-04T05:33:54;48.75;;;24.08;;
76712;SDS011;65640;43.154;25.658;2023-03-04T05:36:20;49.75;;;24.92;;
76712;SDS011;65640;43.154;25.658;2023-03-04T05:38:45;53.65;;;26.73;;
76712;SDS011;65640;43.154;25.658;2023-03-04T05:41:11;61.00;;;26.55;;
76712;SDS011;65640;43.154;25.658;2023-03-04T05:43:36;48.00;;;25.05;;
76712;SDS011;65640;43.154;25.658;2023-03-04T05:46:07;46.83;;;23.65;;
76712;SDS011;65640;43.154;25.658;2023-03-04T05:48:33;44.72;;;24.20;;
76712;SDS011;65640;43.154;25.658;2023-03-04T05:50:59;43.40;;;23.17;;
76712;SDS011;65640;43.154;25.658;2023-03-04T05:53:26;44.65;;;25.13;;
76712;SDS011;65640;43.154;25.658;2023-03-04T05:55:52;56.05;;;27.75;;
76712;SDS011;65640;43.154;25.658;2023-03-04T05:58:17;49.17;;;25.42;;
76712;SDS011;65640;43.154;25.658;2023-03-04T06:00:44;44.72;;;24.90;;
76712;SDS011;65640;43.154;25.658;2023-03-04T06:03:14;48.83;;;27.63;;
76712;SDS011;65640;43.154;25.658;2023-03-04T06:05:40;51.33;;;27.55;;
76712;SDS011;65640;43.154;25.658;2023-03-04T06:08:06;49.83;;;25.52;;
76712;SDS011;65640;43.154;25.658;2023-03-04T06:10:31;47.17;;;26.25;;
76712;SDS011;65640;43.154;25.658;2023-03-04T06:12:57;45.05;;;25.63;;
76712;SDS011;65640;43.154;25.658;2023-03-04T06:15:23;46.60;;;26.38;;
76712;SDS011;65640;43.154;25.658;2023-03-04T06:17:48;44.70;;;24.10;;
76712;SDS011;65640;43.154;25.658;2023-03-04T06:20:13;43.53;;;24.58;;
76712;SDS011;65640;43.154;25.658;2023-03-04T06:22:39;43.33;;;23.77;;
76712;SDS011;65640;43.154;25.658;2023-03-04T06:25:04;98.47;;;41.28;;
76712;SDS011;65640;43.154;25.658;2023-03-04T06:27:30;51.83;;;27.35;;
76712;SDS011;65640;43.154;25.658;2023-03-04T06:29:56;42.95;;;23.33;;
76712;SDS011;65640;43.154;25.658;2023-03-04T06:32:22;47.20;;;25.92;;
76712;SDS011;65640;43.154;25.658;2023-03-04T06:34:47;43.40;;;23.30;;
76712;SDS011;65640;43.154;25.658;2023-03-04T06:37:12;37.75;;;22.40;;
76712;SDS011;65640;43.154;25.658;2023-03-04T06:39:38;46.40;;;26.88;;
76712;SDS011;65640;43.154;25.658;2023-03-04T06:42:03;60.65;;;36.53;;
76712;SDS011;65640;43.154;25.658;2023-03-04T06:44:29;46.97;;;26.88;;
76712;SDS011;65640;43.154;25.658;2023-03-04T06:46:54;39.30;;;23.92;;
76712;SDS011;65640;43.154;25.658;2023-03-04T06:49:20;40.47;;;23.27;;
76712;SDS011;65640;43.154;25.658;2023-03-04T06:51:45;35.00;;;20.95;;
76712;SDS011;65640;43.154;25.658;2023-03-04T06:54:11;38.92;;;21.25;;
76712;SDS011;65640;43.154;25.658;2023-03-04T06:56:36;41.30;;;21.20;;
76712;SDS011;65640;43.154;25.658;2023-03-04T06:59:01;41.90;;;22.10;;
76712;SDS011;65640;43.154;25.658;2023-03-04T07:01:27;36.08;;;20.75;;
76712;SDS011;65640;43.154;25.658;2023-03-04T07:03:54;39.33;;;22.42;;
76712;SDS011;65640;43.154;25.658;2023-03-04T07:06:21;35.95;;;21.35;;
76712;SDS011;65640;43.154;25.658;2023-03-04T07:08:48;36.33;;;21.60;;
76712;SDS011;65640;43.154;25.658;2023-03-04T07:11:14;38.38;;;22.50;;
76712;SDS011;65640;43.154;25.658;2023-03-04T07:13:40;36.45;;;21.33;;
76712;SDS011;65640;43.154;25.658;2023-03-04T07:16:09;29.17;;;18.77;;
76712;SDS011;65640;43.154;25.658;2023-03-04T07:18:36;36.03;;;19.48;;
76712;SDS011;65640;43.154;25.658;2023-03-04T07:21:01;39.03;;;23.48;;
76712;SDS011;65640;43.154;25.658;2023-03-04T07:23:27;38.80;;;23.48;;
76712;SDS011;65640;43.154;25.658;2023-03-04T07:25:53;36.80;;;21.65;;
76712;SDS011;65640;43.154;25.658;2023-03-04T07:28:18;34.72;;;20.38;;
76712;SDS011;65640;43.154;25.658;2023-03-04T07:30:44;36.55;;;21.05;;
76712;SDS011;65640;43.154;25.658;2023-03-04T07:33:09;39.75;;;23.25;;
76712;SDS011;65640;43.154;25.658;2023-03-04T07:35:35;48.17;;;28.23;;
76712;SDS011;65640;43.154;25.658;2023-03-04T07:38:01;37.78;;;23.27;;
76712;SDS011;65640;43.154;25.658;2023-03-04T07:40:26;32.15;;;20.00;;
76712;SDS011;65640;43.154;25.658;2023-03-04T07:42:52;42.92;;;24.73;;
76712;SDS011;65640;43.154;25.658;2023-03-04T07:45:19;33.33;;;20.17;;
76712;SDS011;65640;43.154;25.658;2023-03-04T07:47:45;26.52;;;16.38;;
76712;SDS011;65640;43.154;25.658;2023-03-04T07:50:11;31.65;;;16.98;;
76712;SDS011;65640;43.154;25.658;2023-03-04T07:52:40;30.13;;;17.70;;
76712;SDS011;65640;43.154;25.658;2023-03-04T07:55:07;28.05;;;18.33;;
76712;SDS011;65640;43.154;25.658;2023-03-04T07:57:34;29.15;;;19.50;;
76712;SDS011;65640;43.154;25.658;2023-03-04T08:00:02;36.17;;;20.98;;
76712;SDS011;65640;43.154;25.658;2023-03-04T08:02:27;38.90;;;22.80;;
76712;SDS011;65640;43.154;25.658;2023-03-04T08:04:54;28.17;;;19.85;;
76712;SDS011;65640;43.154;25.658;2023-03-04T08:07:19;34.70;;;19.73;;
76712;SDS011;65640;43.154;25.658;2023-03-04T08:09:44;34.10;;;22.33;;
76712;SDS011;65640;43.154;25.658;2023-03-04T08:12:10;37.00;;;22.98;;
76712;SDS011;65640;43.154;25.658;2023-03-04T08:14:35;35.90;;;21.00;;
76712;SDS011;65640;43.154;25.658;2023-03-04T08:17:01;54.92;;;26.40;;
76712;SDS011;65640;43.154;25.658;2023-03-04T08:19:27;41.03;;;23.15;;
76712;SDS011;65640;43.154;25.658;2023-03-04T08:21:52;57.67;;;30.90;;
76712;SDS011;65640;43.154;25.658;2023-03-04T08:24:18;61.35;;;30.90;;
76712;SDS011;65640;43.154;25.658;2023-03-04T08:26:44;41.28;;;24.70;;
76712;SDS011;65640;43.154;25.658;2023-03-04T08:29:13;38.55;;;20.88;;
76712;SDS011;65640;43.154;25.658;2023-03-04T08:31:44;32.35;;;17.27;;
76712;SDS011;65640;43.154;25.658;2023-03-04T08:34:10;29.80;;;19.38;;
76712;SDS011;65640;43.154;25.658;2023-03-04T08:36:37;31.20;;;18.88;;
76712;SDS011;65640;43.154;25.658;2023-03-04T08:39:03;28.27;;;16.65;;
76712;SDS011;65640;43.154;25.658;2023-03-04T08:41:29;24.80;;;16.30;;
76712;SDS011;65640;43.154;25.658;2023-03-04T08:43:55;30.23;;;14.68;;
76712;SDS011;65640;43.154;25.658;2023-03-04T08:46:21;16.38;;;11.20;;
76712;SDS011;65640;43.154;25.658;2023-03-04T08:48:46;18.30;;;12.90;;
76712;SDS011;65640;43.154;25.658;2023-03-04T08:51:12;20.55;;;13.02;;
76712;SDS011;65640;43.154;25.658;2023-03-04T08:53:39;20.30;;;12.63;;
76712;SDS011;65640;43.154;25.658;2023-03-04T08:56:05;19.60;;;13.85;;
76712;SDS011;65640;43.154;25.658;2023-03-04T08:58:32;22.77;;;13.55;;
76712;SDS011;65640;43.154;25.658;2023-03-04T09:00:58;18.95;;;11.15;;
76712;SDS011;65640;43.154;25.658;2023-03-04T09:03:24;15.70;;;9.43;;
76712;SDS011;65640;43.154;25.658;2023-03-04T09:05:50;14.90;;;10.02;;
76712;SDS011;65640;43.154;25.658;2023-03-04T09:08:16;19.67;;;11.98;;
76712;SDS011;65640;43.154;25.658;2023-03-04T09:10:43;18.77;;;13.13;;
76712;SDS011;65640;43.154;25.658;2023-03-04T09:13:09;21.88;;;12.38;;
76712;SDS011;65640;43.154;25.658;2023-03-04T09:15:36;18.73;;;12.95;;
76712;SDS011;65640;43.154;25.658;2023-03-04T09:18:03;18.85;;;11.10;;
76712;SDS011;65640;43.154;25.658;2023-03-04T09:20:29;15.32;;;11.15;;
76712;SDS011;65640;43.154;25.658;2023-03-04T09:22:56;14.60;;;11.02;;
76712;SDS011;65640;43.154;25.658;2023-03-04T09:25:21;17.90;;;10.85;;
76712;SDS011;65640;43.154;25.658;2023-03-04T09:27:47;17.52;;;11.88;;
76712;SDS011;65640;43.154;25.658;2023-03-04T09:30:12;18.33;;;12.82;;
76712;SDS011;65640;43.154;25.658;2023-03-04T09:32:38;23.88;;;13.52;;
76712;SDS011;65640;43.154;25.658;2023-03-04T09:35:05;17.60;;;11.95;;
76712;SDS011;65640;43.154;25.658;2023-03-04T09:37:31;15.98;;;13.05;;
76712;SDS011;65640;43.154;25.658;2023-03-04T09:39:57;15.90;;;10.25;;
76712;SDS011;65640;43.154;25.658;2023-03-04T09:42:26;13.93;;;10.05;;
76712;SDS011;65640;43.154;25.658;2023-03-04T09:44:57;14.95;;;10.80;;
76712;SDS011;65640;43.154;25.658;2023-03-04T09:47:23;14.23;;;8.85;;
76712;SDS011;65640;43.154;25.658;2023-03-04T09:49:57;19.40;;;11.45;;
76712;SDS011;65640;43.154;25.658;2023-03-04T10:03:27;16.25;;;9.85;;
76712;SDS011;65640;43.154;25.658;2023-03-04T10:06:08;14.90;;;10.15;;
76712;SDS011;65640;43.154;25.658;2023-03-04T10:11:24;13.25;;;9.05;;
76712;SDS011;65640;43.154;25.658;2023-03-04T10:16:28;11.38;;;9.50;;
76712;SDS011;65640;43.154;25.658;2023-03-04T10:19:29;15.68;;;10.45;;
76712;SDS011;65640;43.154;25.658;2023-03-04T10:22:31;13.60;;;9.40;;
76712;SDS011;65640;43.154;25.658;2023-03-04T10:24:59;15.10;;;9.57;;
76712;SDS011;65640;43.154;25.658;2023-03-04T10:27:38;11.55;;;8.38;;
76712;SDS011;65640;43.154;25.658;2023-03-04T10:30:05;17.98;;;9.77;;
76712;SDS011;65640;43.154;25.658;2023-03-04T10:32:46;20.17;;;9.70;;
76712;SDS011;65640;43.154;25.658;2023-03-04T10:35:12;17.50;;;10.35;;
76712;SDS011;65640;43.154;25.658;2023-03-04T10:37:48;14.00;;;9.75;;
76712;SDS011;65640;43.154;25.658;2023-03-04T10:40:18;13.70;;;9.05;;
76712;SDS011;65640;43.154;25.658;2023-03-04T10:42:47;20.20;;;11.45;;
76712;SDS011;65640;43.154;25.658;2023-03-04T10:45:21;12.90;;;8.65;;
76712;SDS011;65640;43.154;25.658;2023-03-04T10:47:54;16.75;;;10.25;;
76712;SDS011;65640;43.154;25.658;2023-03-04T10:50:24;15.35;;;9.13;;
76712;SDS011;65640;43.154;25.658;2023-03-04T10:52:51;16.58;;;9.38;;
76712;SDS011;65640;43.154;25.658;2023-03-04T10:55:39;14.15;;;9.38;;
76712;SDS011;65640;43.154;25.658;2023-03-04T10:58:10;14.35;;;9.73;;
76712;SDS011;65640;43.154;25.658;2023-03-04T11:00:39;18.15;;;10.55;;
76712;SDS011;65640;43.154;25.658;2023-03-04T11:05:49;12.93;;;9.43;;
76712;SDS011;65640;43.154;25.658;2023-03-04T11:08:20;11.02;;;8.43;;
76712;SDS011;65640;43.154;25.658;2023-03-04T11:10:47;11.95;;;8.30;;
76712;SDS011;65640;43.154;25.658;2023-03-04T11:18:19;12.80;;;7.40;;
76712;SDS011;65640;43.154;25.658;2023-03-04T11:20:51;12.60;;;8.45;;
76712;SDS011;65640;43.154;25.658;2023-03-04T11:23:24;11.70;;;7.85;;
76712;SDS011;65640;43.154;25.658;2023-03-04T11:26:01;12.05;;;7.75;;
76712;SDS011;65640;43.154;25.658;2023-03-04T11:32:02;12.85;;;7.45;;
76712;SDS011;65640;43.154;25.658;2023-03-04T11:37:14;13.15;;;6.78;;
76712;SDS011;65640;43.154;25.658;2023-03-04T11:39:46;11.50;;;7.35;;
76712;SDS011;65640;43.154;25.658;2023-03-04T11:42:40;9.35;;;6.10;;
76712;SDS011;65640;43.154;25.658;2023-03-04T11:48:08;8.85;;;6.15;;
76712;SDS011;65640;43.154;25.658;2023-03-04T11:50:53;11.35;;;6.40;;
76712;SDS011;65640;43.154;25.658;2023-03-04T11:56:19;12.05;;;7.47;;
76712;SDS011;65640;43.154;25.658;2023-03-04T11:58:57;16.02;;;7.97;;
76712;SDS011;65640;43.154;25.658;2023-03-04T12:01:54;9.02;;;7.05;;
76712;SDS011;65640;43.154;25.658;2023-03-04T12:10:14;13.30;;;6.68;;
76712;SDS011;65640;43.154;25.658;2023-03-04T12:21:18;11.85;;;6.45;;
76712;SDS011;65640;43.154;25.658;2023-03-04T12:38:19;11.45;;;6.80;;
76712;SDS011;65640;43.154;25.658;2023-03-04T12:44:13;13.95;;;8.35;;
76712;SDS011;65640;43.154;25.658;2023-03-04T12:48:54;11.57;;;8.23;;
76712;SDS011;65640;43.154;25.658;2023-03-04T12:51:29;11.35;;;7.97;;
76712;SDS011;65640;43.154;25.658;2023-03-04T12:56:44;13.82;;;7.53;;
76712;SDS011;65640;43.154;25.658;2023-03-04T12:59:20;11.95;;;7.78;;
76712;SDS011;65640;43.154;25.658;2023-03-04T13:05:02;15.77;;;8.55;;
76712;SDS011;65640;43.154;25.658;2023-03-04T13:08:07;16.45;;;8.23;;
76712;SDS011;65640;43.154;25.658;2023-03-04T13:10:35;18.73;;;8.68;;
76712;SDS011;65640;43.154;25.658;2023-03-04T13:13:01;11.18;;;8.90;;
76712;SDS011;65640;43.154;25.658;2023-03-04T13:15:37;14.85;;;8.85;;
76712;SDS011;65640;43.154;25.658;2023-03-04T13:20:40;17.73;;;8.15;;
76712;SDS011;65640;43.154;25.658;2023-03-04T13:25:47;13.07;;;8.55;;
76712;SDS011;65640;43.154;25.658;2023-03-04T13:43:50;10.93;;;8.13;;
76712;SDS011;65640;43.154;25.658;2023-03-04T13:51:29;10.77;;;6.63;;
76712;SDS011;65640;43.154;25.658;2023-03-04T14:07:00;10.50;;;6.90;;
76712;SDS011;65640;43.154;25.658;2023-03-04T14:09:30;13.32;;;8.20;;
76712;SDS011;65640;43.154;25.658;2023-03-04T14:11:57;7.38;;;6.22;;
76712;SDS011;65640;43.154;25.658;2023-03-04T14:14:27;15.70;;;8.85;;
76712;SDS011;65640;43.154;25.658;2023-03-04T14:16:57;11.98;;;7.22;;
76712;SDS011;65640;43.154;25.658;2023-03-04T14:21:53;11.32;;;7.97;;
76712;SDS011;65640;43.154;25.658;2023-03-04T14:24:20;14.18;;;7.80;;
76712;SDS011;65640;43.154;25.658;2023-03-04T14:26:47;10.52;;;7.43;;
76712;SDS011;65640;43.154;25.658;2023-03-04T14:31:50;13.13;;;7.10;;
76712;SDS011;65640;43.154;25.658;2023-03-04T14:36:47;10.90;;;7.97;;
76712;SDS011;65640;43.154;25.658;2023-03-04T14:39:14;12.65;;;7.65;;
76712;SDS011;65640;43.154;25.658;2023-03-04T14:41:42;12.55;;;7.22;;
76712;SDS011;65640;43.154;25.658;2023-03-04T14:46:52;9.13;;;6.30;;
76712;SDS011;65640;43.154;25.658;2023-03-04T14:49:23;12.45;;;7.63;;
76712;SDS011;65640;43.154;25.658;2023-03-04T14:51:49;13.68;;;8.43;;
76712;SDS011;65640;43.154;25.658;2023-03-04T14:54:34;13.98;;;8.43;;
76712;SDS011;65640;43.154;25.658;2023-03-04T14:57:18;17.23;;;8.38;;
76712;SDS011;65640;43.154;25.658;2023-03-04T14:59:48;10.70;;;8.88;;
76712;SDS011;65640;43.154;25.658;2023-03-04T15:04:55;13.77;;;8.80;;
76712;SDS011;65640;43.154;25.658;2023-03-04T15:07:28;17.70;;;9.95;;
76712;SDS011;65640;43.154;25.658;2023-03-04T15:09:57;12.93;;;9.85;;
76712;SDS011;65640;43.154;25.658;2023-03-04T15:12:30;17.08;;;9.48;;
76712;SDS011;65640;43.154;25.658;2023-03-04T15:15:04;14.63;;;9.68;;
76712;SDS011;65640;43.154;25.658;2023-03-04T15:17:57;17.08;;;8.80;;
76712;SDS011;65640;43.154;25.658;2023-03-04T15:20:25;46.78;;;11.05;;
76712;SDS011;65640;43.154;25.658;2023-03-04T15:22:57;18.40;;;9.48;;
76712;SDS011;65640;43.154;25.658;2023-03-04T15:25:24;16.25;;;9.52;;
76712;SDS011;65640;43.154;25.658;2023-03-04T15:27:50;22.42;;;10.50;;
76712;SDS011;65640;43.154;25.658;2023-03-04T15:30:20;19.05;;;9.77;;
76712;SDS011;65640;43.154;25.658;2023-03-04T15:32:46;14.77;;;9.48;;
76712;SDS011;65640;43.154;25.658;2023-03-04T15:35:12;21.55;;;10.13;;
76712;SDS011;65640;43.154;25.658;2023-03-04T15:37:39;16.77;;;10.30;;
76712;SDS011;65640;43.154;25.658;2023-03-04T15:42:49;25.20;;;12.02;;
76712;SDS011;65640;43.154;25.658;2023-03-04T15:47:47;26.13;;;16.60;;
76712;SDS011;65640;43.154;25.658;2023-03-04T15:50:12;24.63;;;14.70;;
76712;SDS011;65640;43.154;25.658;2023-03-04T15:52:38;29.90;;;13.68;;
76712;SDS011;65640;43.154;25.658;2023-03-04T15:55:04;16.58;;;10.43;;
76712;SDS011;65640;43.154;25.658;2023-03-04T15:57:31;15.55;;;9.40;;
76712;SDS011;65640;43.154;25.658;2023-03-04T15:59:57;17.48;;;9.65;;
76712;SDS011;65640;43.154;25.658;2023-03-04T16:02:23;20.98;;;11.60;;
76712;SDS011;65640;43.154;25.658;2023-03-04T16:04:51;27.20;;;17.10;;
76712;SDS011;65640;43.154;25.658;2023-03-04T16:07:19;40.55;;;21.95;;
76712;SDS011;65640;43.154;25.658;2023-03-04T16:09:48;51.80;;;26.67;;
76712;SDS011;65640;43.154;25.658;2023-03-04T16:12:20;56.42;;;27.98;;
76712;SDS011;65640;43.154;25.658;2023-03-04T16:14:46;83.00;;;36.58;;
76712;SDS011;65640;43.154;25.658;2023-03-04T16:17:13;69.40;;;30.92;;
76712;SDS011;65640;43.154;25.658;2023-03-04T16:19:40;38.92;;;20.90;;
76712;SDS011;65640;43.154;25.658;2023-03-04T16:22:06;26.50;;;17.08;;
76712;SDS011;65640;43.154;25.658;2023-03-04T16:24:33;44.67;;;24.40;;
76712;SDS011;65640;43.154;25.658;2023-03-04T16:26:58;38.88;;;18.10;;
76712;SDS011;65640;43.154;25.658;2023-03-04T16:29:24;24.95;;;12.52;;
76712;SDS011;65640;43.154;25.658;2023-03-04T16:31:49;25.77;;;13.40;;
76712;SDS011;65640;43.154;25.658;2023-03-04T16:34:15;22.80;;;13.05;;
76712;SDS011;65640;43.154;25.658;2023-03-04T16:36:40;23.48;;;14.63;;
76712;SDS011;65640;43.154;25.658;2023-03-04T16:39:07;25.30;;;14.65;;